Fairbanks, AK (99710)

8:10 PM AKDT on April 26, 2017 (GMT -0800)
KAKFAIRB24 | | Change Station

Elev 540 ft 64.81 °N, 147.70 °W | Updated 45 seconds ago

Clear
Clear
46.9 °F
Feels Like 47 °F
N
2.0
Wind Variable Wind from WNW
Gusts 2.0 mph

Today
High -- | Low -- °F
--% Chance of Precip.
Yesterday
High -- | Low -- °F
Precip. -- in
Pressure 29.56 in
Visibility 10.0 miles
Clouds Clear
Windchill 47 °F
Dew Point 30 °F
Humidity 52%
Rainfall 0.00 in
Snow Depth Not available.
5:34 AM 10:05 PM
New Moon, 1% visible
METAR PAFB 270358Z AUTO 31008KT 10SM CLR 09/M02 A2954 RMK AO2 SLP009 T00861024
Pressure 29.56 in
Visibility 10.0 miles
Clouds Clear
Windchill 47 °F
Dew Point 30 °F
Humidity 52%
Rainfall 0.00 in
Snow Depth Not available.
5:34 AM 10:05 PM
New Moon, 1% visible
METAR PAFB 270358Z AUTO 31008KT 10SM CLR 09/M02 A2954 RMK AO2 SLP009 T00861024

Get Severe Weather Alerts

Thanks for signing up!

Be on the lookout for a verification email in your inbox.

You'll start receiving the daily forecast at 8 AM.

×

10-Day Weather Forecast

Almanac

Astronomy

Apr. 26, 2017 Rise Set
Actual Time
Civil Twilight
Nautical Twilight
Astronomical Twilight
Moon
Length of Visible Light
Length of Day
Tomorrow will be .
, % of the Moon is Illuminated

Today's Extremes

State Highs State Lows

Community

WunderPhotos

WunderBlog® & News

Nearby

Air Quality

  Air Quality AQ Index Pollutant
Not available.

Snow Depth

Station Depth Elevation

Earthquake Activity

City Distance Mag. Time & Date
Minimum magnitude displayed is 2.5.

Coastal Water Temperatures

Place Temperature

Stations

Nearby Weather Stations

Station Location Temp. Windchill Dew Point Humidity Wind Precip. Elev Updated Type
                   

Watches & Warnings

There are currently no watches in effect.